General Aviation Weather

Text Reports

Enter one or more of the following location identifiers separated by a space:

Zip Code, Four-Character ICAO or Three-Character IATA airport codes.

METAR - Aviation Routine Weather Report
KAXA - Algona, Iowa
Updated at 5:55 PM GMT on December 19, 2014 (11:55 AM CST):
METAR KAXA 191755Z AUTO 18012KT 4SM BR OVC006 M01/M01 A3020 RMK AO2
TAF - Terminal Area Forecast
KAXA - Algona, Iowa
Updated at 5:55 PM GMT on December 19, 2014 (11:55 AM CST):
No TAF is currently available for this location.
Decoded:
No decoded TAF is available.
PIREP - Pilot Weather Report
KAXA - Algona, Iowa
Updated at 5:55 PM GMT on December 19, 2014 (11:55 AM CST):
No PIREP is currently available for this location.
AIRMET - Airmens Meteorological Information
KAXA - Algona, Iowa
Updated at 5:55 PM GMT on December 19, 2014 (11:55 AM CST):
No AIRMET is currently available for this location.
SIGMET - Significant Meteorological Information
KAXA - Algona, Iowa
Updated at 5:55 PM GMT on December 19, 2014 (11:55 AM CST):
No SIGMET is currently available for this location.
NOTAM - Notice to Airmen
KAXA - Algona, Iowa
Updated at 5:55 PM GMT on December 19, 2014 (11:55 AM CST):
No NOTAM is currently available for this location.
Forecast Area
KAXA - Algona, Iowa
Updated at 5:55 PM GMT on December 19, 2014 (11:55 AM CST):
No NOTAM is currently available for this location.
Aviation Weather Maps